KHSD

Sundance Airport

Oklahoma City, Oklahoma, USA
METAR KHSD 271140Z AUTO 17007KT 10SM CLR 23/20 A2986 RMK A01
Observed Flight Rules
May-27 @ 11:40 UTC (22 minutes ago) Visual Flight Rules
Wind Visibility Clouds
170° at 7 knots 10 miles
  • Clear skies
Temperatures Readings
Current 23°C / 73°F
Dewpoint 20°C / 68°F
Humidity 83%
Altimeter 29.86" Hg
Pressure 1011 hPa
Elevation 364
METAR KHSD 271140Z AUTO 17007KT 10SM CLR 23/20 A2986 RMK A01
Observed Flight Rules
May-27 @ 11:40 UTC
(22 minutes ago)
VFR
Wind Visibility
170° at 7 knots 10 miles
Clouds
  • Clear skies
Temperature Dewpoint
23°C / 73°F 20°C / 68°F
Humidity Altimeter Pressure
83% 29.86" Hg 1011 hPa